createdAt,value
2019-04-21T00:00:35.488Z,13.47
2019-04-21T00:01:39.871Z,13.46
2019-04-21T00:02:37.714Z,13.45
2019-04-21T00:03:42.394Z,13.46
2019-04-21T00:04:46.849Z,13.49
2019-04-21T00:05:54.590Z,13.49
2019-04-21T00:06:58.262Z,13.52
2019-04-21T00:07:51.082Z,13.55
2019-04-21T00:08:56.512Z,13.58
2019-04-21T00:10:59.365Z,13.64
2019-04-21T00:11:57.270Z,13.67
2019-04-21T00:12:52.056Z,13.71
2019-04-21T00:13:46.742Z,13.78
2019-04-21T00:14:46.070Z,13.82
2019-04-21T00:15:42.070Z,13.86
2019-04-21T00:16:44.126Z,13.91
2019-04-21T00:17:35.049Z,13.91
2019-04-21T00:18:41.783Z,13.93
2019-04-21T00:19:37.081Z,13.83
2019-04-21T00:20:41.291Z,13.80
2019-04-21T00:21:40.466Z,13.70
2019-04-21T00:22:44.439Z,13.60
2019-04-21T00:23:54.095Z,13.55
2019-04-21T00:25:46.135Z,13.47
2019-04-21T00:26:55.667Z,13.42
2019-04-21T00:27:50.108Z,13.37
2019-04-21T00:28:59.515Z,13.28
2019-04-21T00:29:52.172Z,13.17
2019-04-21T00:30:50.503Z,13.08
2019-04-21T00:31:45.550Z,13.08
2019-04-21T00:32:46.544Z,13.03
2019-04-21T00:33:37.773Z,12.83
2019-04-21T00:34:34.283Z,12.78
2019-04-21T00:35:40.365Z,12.63
2019-04-21T00:36:48.891Z,12.61
2019-04-21T00:37:53.359Z,12.37
2019-04-21T00:39:06.876Z,12.35
2019-04-21T00:40:00.980Z,12.28
2019-04-21T00:40:54.822Z,12.21
2019-04-21T00:41:53.741Z,12.10
2019-04-21T00:42:48.745Z,12.12
2019-04-21T00:43:49.064Z,11.97
2019-04-21T00:44:52.098Z,11.74
2019-04-21T00:45:44.641Z,11.63
2019-04-21T00:46:47.244Z,11.65
2019-04-21T00:47:52.865Z,11.59
2019-04-21T00:48:53.439Z,11.53
2019-04-21T00:49:58.002Z,11.41
2019-04-21T00:51:11.782Z,11.34
2019-04-21T00:52:09.359Z,11.22
2019-04-21T00:53:02.246Z,11.19
2019-04-21T00:54:07.044Z,11.25
2019-04-21T00:55:10.062Z,11.31
2019-04-21T00:55:57.347Z,11.40
2019-04-21T00:56:59.163Z,11.43
2019-04-21T00:58:00.071Z,11.48
2019-04-21T00:58:59.529Z,11.53
2019-04-21T00:59:50.007Z,11.59
2019-04-21T01:00:58.128Z,11.62
2019-04-21T01:01:53.868Z,11.67
2019-04-21T01:02:56.119Z,11.65
2019-04-21T01:03:58.285Z,11.67
2019-04-21T01:04:59.804Z,11.65
2019-04-21T01:06:14.377Z,11.65
2019-04-21T01:06:56.055Z,11.65
2019-04-21T01:07:54.659Z,11.65
2019-04-21T01:08:55.267Z,11.60
2019-04-21T01:09:50.072Z,11.59
2019-04-21T01:10:49.165Z,11.56
2019-04-21T01:11:57.583Z,11.53
2019-04-21T01:12:56.114Z,11.49
2019-04-21T01:13:59.636Z,11.51
2019-04-21T01:14:59.522Z,11.52
2019-04-21T01:15:53.336Z,11.51
2019-04-21T01:16:57.960Z,11.51
2019-04-21T01:17:54.601Z,11.51
2019-04-21T01:18:51.920Z,11.49
2019-04-21T01:19:46.861Z,11.51
2019-04-21T01:20:32.975Z,11.51
2019-04-21T01:21:32.967Z,11.53
2019-04-21T01:22:32.940Z,11.56
2019-04-21T01:23:33.688Z,11.58
2019-04-21T01:24:37.627Z,11.58
2019-04-21T01:25:38.186Z,11.56
2019-04-21T01:26:43.818Z,11.55
2019-04-21T01:27:55.901Z,11.55
2019-04-21T01:28:52.460Z,11.53
2019-04-21T01:29:54.006Z,11.52
2019-04-21T01:30:53.571Z,11.53
2019-04-21T01:31:48.274Z,11.52
2019-04-21T01:32:53.267Z,11.53
2019-04-21T01:33:59.227Z,11.49
2019-04-21T01:34:51.101Z,11.43
2019-04-21T01:35:53.703Z,11.43
2019-04-21T01:36:49.824Z,11.41
2019-04-21T01:38:10.965Z,11.38
2019-04-21T01:38:57.769Z,11.34
2019-04-21T01:39:54.529Z,11.34
2019-04-21T01:40:57.124Z,11.35
2019-04-21T01:41:51.145Z,11.35
2019-04-21T01:42:51.123Z,11.34
2019-04-21T01:43:51.554Z,11.25
2019-04-21T01:44:56.413Z,11.19
2019-04-21T01:45:48.705Z,11.19
2019-04-21T01:46:49.293Z,11.05
2019-04-21T01:47:51.091Z,11.01
2019-04-21T01:48:49.346Z,10.84
2019-04-21T01:49:43.061Z,10.89
2019-04-21T01:50:51.045Z,10.94
2019-04-21T01:52:05.578Z,10.97
2019-04-21T01:52:56.016Z,10.98
2019-04-21T01:53:57.956Z,10.97
2019-04-21T01:54:55.208Z,10.92
2019-04-21T01:55:54.555Z,10.94
2019-04-21T01:56:53.985Z,10.95
2019-04-21T01:57:49.338Z,10.89
2019-04-21T01:58:42.951Z,10.86
2019-04-21T01:59:47.145Z,10.83
2019-04-21T02:00:48.483Z,10.72
2019-04-21T02:01:54.124Z,10.71
2019-04-21T02:02:59.571Z,10.72
2019-04-21T02:05:00.737Z,10.68
2019-04-21T02:05:58.593Z,10.69
2019-04-21T02:06:45.594Z,10.67
2019-04-21T02:07:50.554Z,10.68
2019-04-21T02:08:50.982Z,10.67
2019-04-21T02:09:50.730Z,10.65
2019-04-21T02:10:54.928Z,10.67
2019-04-21T02:11:56.368Z,10.61
2019-04-21T02:12:54.979Z,10.62
2019-04-21T02:14:00.406Z,10.65
2019-04-21T02:15:00.425Z,10.65
2019-04-21T02:15:56.405Z,10.65
2019-04-21T02:16:55.678Z,10.67
2019-04-21T02:17:53.706Z,10.62
2019-04-21T02:18:53.064Z,10.48
2019-04-21T02:19:51.736Z,10.34
2019-04-21T02:20:40.999Z,10.24
2019-04-21T02:21:50.415Z,10.25
2019-04-21T02:23:19.158Z,10.15
2019-04-21T02:23:58.656Z,10.18
2019-04-21T02:24:58.365Z,10.23
2019-04-21T02:26:48.517Z,10.28
2019-04-21T02:27:57.498Z,10.30
2019-04-21T02:28:55.855Z,10.30
2019-04-21T02:29:55.850Z,10.30
2019-04-21T02:31:14.187Z,10.31
2019-04-21T02:32:20.227Z,10.33
2019-04-21T02:36:15.477Z,10.34
2019-04-21T02:38:13.914Z,10.21
2019-04-21T02:39:08.164Z,10.15
2019-04-21T02:40:04.927Z,10.12
2019-04-21T02:40:57.888Z,10.10
2019-04-21T02:42:05.327Z,10.05
2019-04-21T02:43:05.370Z,9.97
2019-04-21T02:44:10.154Z,9.95
2019-04-21T02:45:00.333Z,9.95
2019-04-21T02:46:04.259Z,9.92
2019-04-21T02:47:12.182Z,9.91
2019-04-21T02:48:06.915Z,9.91
2019-04-21T02:49:07.845Z,9.81
2019-04-21T02:50:09.555Z,9.72
2019-04-21T02:50:57.682Z,9.72
2019-04-21T02:52:13.782Z,9.67
2019-04-21T02:53:07.099Z,9.67
2019-04-21T02:54:31.826Z,9.69
2019-04-21T02:55:02.798Z,9.72
2019-04-21T02:56:00.211Z,9.63
2019-04-21T02:59:17.142Z,9.54
2019-04-21T03:00:06.863Z,9.42
2019-04-21T03:01:08.072Z,9.39
2019-04-21T03:02:03.628Z,9.40
2019-04-21T03:04:00.056Z,9.49
2019-04-21T03:05:02.413Z,9.54
2019-04-21T03:07:09.667Z,9.62
2019-04-21T03:09:09.208Z,9.54
2019-04-21T03:10:00.105Z,9.52
2019-04-21T03:11:09.390Z,9.47
2019-04-21T03:13:08.916Z,9.37
2019-04-21T03:14:11.101Z,9.36
2019-04-21T03:15:08.061Z,9.37
2019-04-21T03:16:09.227Z,9.40
2019-04-21T03:17:05.645Z,9.40
2019-04-21T03:18:06.475Z,9.40
2019-04-21T03:19:20.366Z,9.40
2019-04-21T03:19:59.929Z,9.39
2019-04-21T03:21:16.341Z,9.39
2019-04-21T03:22:05.227Z,9.40
2019-04-21T03:23:09.470Z,9.37
2019-04-21T03:23:57.375Z,9.37
2019-04-21T03:25:28.290Z,9.36
2019-04-21T03:26:14.348Z,9.39
2019-04-21T03:29:03.619Z,9.39
2019-04-21T03:30:14.276Z,9.36
2019-04-21T03:31:24.997Z,9.34
2019-04-21T03:32:31.806Z,9.31
2019-04-21T03:33:47.004Z,9.30
2019-04-21T03:37:11.357Z,9.29
2019-04-21T03:38:13.778Z,9.21
2019-04-21T03:38:55.596Z,9.21
2019-04-21T03:39:59.336Z,9.21
2019-04-21T03:40:57.719Z,9.16
2019-04-21T03:43:59.158Z,9.18
2019-04-21T03:45:06.849Z,9.21
2019-04-21T03:46:00.913Z,9.22
2019-04-21T03:48:05.309Z,9.27
2019-04-21T03:49:12.234Z,9.29
2019-04-21T03:50:08.019Z,9.31
2019-04-21T03:50:56.419Z,9.30
2019-04-21T03:52:03.813Z,9.30
2019-04-21T03:53:06.980Z,9.27
2019-04-21T03:54:00.372Z,9.26
2019-04-21T03:55:18.265Z,9.26
2019-04-21T03:57:17.791Z,9.15
2019-04-21T04:00:17.659Z,8.99
2019-04-21T04:03:27.476Z,8.89
2019-04-21T04:05:08.940Z,8.87
2019-04-21T04:07:25.082Z,8.92
2019-04-21T04:08:24.980Z,8.95
2019-04-21T04:09:19.384Z,8.99
2019-04-21T04:10:11.766Z,8.96
2019-04-21T04:11:23.435Z,8.97
2019-04-21T04:11:56.051Z,8.99
2019-04-21T04:12:57.083Z,9.00
2019-04-21T04:14:09.051Z,9.02
2019-04-21T04:18:07.787Z,8.63
2019-04-21T04:19:01.563Z,8.64
2019-04-21T04:20:24.075Z,8.69
2019-04-21T04:21:03.480Z,8.72
2019-04-21T04:22:09.364Z,8.69
2019-04-21T04:23:03.801Z,8.61
2019-04-21T04:24:09.144Z,8.57
2019-04-21T04:25:57.754Z,8.44
2019-04-21T04:28:09.870Z,8.38
2019-04-21T04:29:04.177Z,8.39
2019-04-21T04:30:10.672Z,8.42
2019-04-21T04:31:09.283Z,8.44
2019-04-21T04:31:58.792Z,8.42
2019-04-21T04:32:57.242Z,8.45
2019-04-21T04:34:10.440Z,8.46
2019-04-21T04:35:04.006Z,8.46
2019-04-21T04:36:15.637Z,8.46
2019-04-21T04:37:05.406Z,8.42
2019-04-21T04:37:59.191Z,8.44
2019-04-21T04:39:23.047Z,8.44
2019-04-21T04:40:10.466Z,8.45
2019-04-21T04:41:09.739Z,8.45
2019-04-21T04:43:09.034Z,8.49
2019-04-21T04:44:06.991Z,8.53
2019-04-21T04:46:00.517Z,8.57
2019-04-21T04:47:04.646Z,8.56
2019-04-21T04:48:01.958Z,8.56
2019-04-21T04:49:01.718Z,8.56
2019-04-21T04:50:10.271Z,8.56
2019-04-21T04:51:02.206Z,8.56
2019-04-21T04:52:18.691Z,8.56
2019-04-21T04:52:57.022Z,8.59
2019-04-21T04:54:28.645Z,8.61
2019-04-21T04:55:00.681Z,8.66
2019-04-21T04:57:08.217Z,8.71
2019-04-21T04:59:23.389Z,8.74
2019-04-21T05:01:08.057Z,8.78
2019-04-21T05:02:56.378Z,8.86
2019-04-21T05:04:20.567Z,8.89
2019-04-21T05:05:09.185Z,8.87
2019-04-21T05:06:15.827Z,8.89
2019-04-21T05:06:58.094Z,8.87
2019-04-21T05:08:19.814Z,8.87
2019-04-21T05:11:08.028Z,8.77
2019-04-21T05:11:55.742Z,8.75
2019-04-21T05:13:04.315Z,8.75
2019-04-21T05:14:59.911Z,8.77
2019-04-21T05:16:01.582Z,8.81
2019-04-21T05:17:57.609Z,8.89
2019-04-21T05:21:03.597Z,9.03
2019-04-21T05:22:05.807Z,9.00
2019-04-21T05:22:53.140Z,9.02
2019-04-21T05:23:46.986Z,9.03
2019-04-21T05:24:44.073Z,9.03
2019-04-21T05:25:48.402Z,9.05
2019-04-21T05:26:50.771Z,9.11
2019-04-21T05:27:45.153Z,9.15
2019-04-21T05:28:42.034Z,9.16
2019-04-21T05:29:56.799Z,9.21
2019-04-21T05:30:58.539Z,9.26
2019-04-21T05:32:18.483Z,9.30
2019-04-21T05:32:58.411Z,9.34
2019-04-21T05:33:53.234Z,9.37
2019-04-21T05:34:50.823Z,9.37
2019-04-21T05:35:49.075Z,9.40
2019-04-21T05:36:52.430Z,9.45
2019-04-21T05:37:50.405Z,9.48
2019-04-21T05:38:50.257Z,9.51
2019-04-21T05:39:42.013Z,9.54
2019-04-21T05:40:38.991Z,9.56
2019-04-21T05:41:38.607Z,9.54
2019-04-21T05:42:48.604Z,9.58
2019-04-21T05:43:54.465Z,9.62
2019-04-21T05:44:58.807Z,9.62
2019-04-21T05:45:53.539Z,9.66
2019-04-21T05:46:59.370Z,9.69
2019-04-21T05:47:55.837Z,9.70
2019-04-21T05:48:52.601Z,9.73
2019-04-21T05:49:49.921Z,9.74
2019-04-21T05:50:49.510Z,9.80
2019-04-21T05:51:44.310Z,9.84
2019-04-21T05:52:46.775Z,9.84
2019-04-21T05:53:56.131Z,9.88
2019-04-21T05:54:57.296Z,9.91
2019-04-21T05:55:58.397Z,9.95
2019-04-21T05:56:48.755Z,9.99
2019-04-21T05:57:47.827Z,10.03
2019-04-21T05:58:49.723Z,10.09
2019-04-21T05:59:49.215Z,10.10
2019-04-21T06:02:01.414Z,10.18
2019-04-21T06:02:55.566Z,10.21
2019-04-21T06:06:56.896Z,10.48
2019-04-21T06:07:48.973Z,10.57
2019-04-21T06:08:48.092Z,10.61
2019-04-21T06:09:56.418Z,10.68
2019-04-21T06:10:52.460Z,10.75
2019-04-21T06:11:51.230Z,10.82
2019-04-21T06:12:57.905Z,10.87
2019-04-21T06:13:55.068Z,10.94
2019-04-21T06:14:54.551Z,11.01
2019-04-21T06:15:57.972Z,11.08
2019-04-21T06:16:58.679Z,11.13
2019-04-21T06:17:54.737Z,11.15
2019-04-21T06:18:53.086Z,11.13
2019-04-21T06:20:55.095Z,11.19
2019-04-21T06:21:44.892Z,11.22
2019-04-21T06:22:53.319Z,11.27
2019-04-21T06:23:49.725Z,11.31
2019-04-21T06:25:16.271Z,11.30
2019-04-21T06:26:25.378Z,11.22
2019-04-21T06:27:05.388Z,11.19
2019-04-21T06:27:51.109Z,11.18
2019-04-21T06:28:51.851Z,11.12
2019-04-21T06:29:52.731Z,11.15
2019-04-21T06:31:01.535Z,11.16
2019-04-21T06:32:16.330Z,11.13
2019-04-21T06:32:50.582Z,11.18
2019-04-21T06:34:04.718Z,11.19
2019-04-21T06:35:07.319Z,11.23
2019-04-21T06:36:11.457Z,11.27
2019-04-21T06:37:50.831Z,11.33
2019-04-21T06:39:01.976Z,11.34
2019-04-21T06:40:01.935Z,11.37
2019-04-21T06:40:58.748Z,11.41
2019-04-21T06:41:49.008Z,11.45
2019-04-21T06:43:04.394Z,11.55
2019-04-21T06:43:56.597Z,11.60
2019-04-21T06:44:57.507Z,11.68
2019-04-21T06:46:11.053Z,11.74
2019-04-21T06:47:06.346Z,11.83
2019-04-21T06:47:51.334Z,11.93
2019-04-21T06:48:55.519Z,11.99
2019-04-21T06:49:52.411Z,12.05
2019-04-21T06:50:52.606Z,12.07
2019-04-21T06:51:46.893Z,12.08
2019-04-21T06:53:59.715Z,12.15
2019-04-21T06:54:57.043Z,12.17
2019-04-21T06:55:57.545Z,12.21
2019-04-21T06:57:04.917Z,12.29
2019-04-21T06:57:56.101Z,12.39
2019-04-21T06:58:51.776Z,12.47
2019-04-21T06:59:43.399Z,12.55
2019-04-21T07:00:47.749Z,12.62
2019-04-21T07:01:55.094Z,12.68
2019-04-21T07:02:52.830Z,12.75
2019-04-21T07:04:01.667Z,12.86
2019-04-21T07:05:57.616Z,12.94
2019-04-21T07:08:05.202Z,13.06
2019-04-21T07:09:52.742Z,13.23
2019-04-21T07:10:51.732Z,13.31
2019-04-21T07:11:52.892Z,13.36
2019-04-21T07:12:45.314Z,13.40
2019-04-21T07:13:49.052Z,13.40
2019-04-21T07:14:49.776Z,13.40
2019-04-21T07:15:53.100Z,13.43
2019-04-21T07:16:52.964Z,13.47
2019-04-21T07:17:53.600Z,13.47
2019-04-21T07:20:07.198Z,13.49
2019-04-21T07:20:49.157Z,13.46
2019-04-21T07:21:54.208Z,13.50
2019-04-21T07:22:51.203Z,13.55
2019-04-21T07:23:54.361Z,13.64
2019-04-21T07:24:49.286Z,13.65
2019-04-21T07:25:51.965Z,13.70
2019-04-21T07:26:51.556Z,13.75
2019-04-21T07:28:56.900Z,13.82
2019-04-21T07:29:56.545Z,13.86
2019-04-21T07:30:56.621Z,13.87
2019-04-21T07:31:55.643Z,13.95
2019-04-21T07:32:56.299Z,14.01
2019-04-21T07:34:52.147Z,14.20
2019-04-21T07:35:51.794Z,14.28
2019-04-21T07:37:49.368Z,14.44
2019-04-21T07:38:45.612Z,14.55
2019-04-21T07:39:46.913Z,14.61
2019-04-21T07:40:42.965Z,14.63
2019-04-21T07:41:46.944Z,14.68
2019-04-21T07:42:42.931Z,14.73
2019-04-21T07:43:44.111Z,14.78
2019-04-21T07:44:44.750Z,14.85
2019-04-21T07:45:40.179Z,14.93
2019-04-21T07:46:42.709Z,15.04
2019-04-21T07:47:48.114Z,15.11
2019-04-21T07:48:50.113Z,15.14
2019-04-21T07:49:53.521Z,15.22
2019-04-21T07:50:47.433Z,15.29
2019-04-21T07:51:50.651Z,15.35
2019-04-21T07:52:55.382Z,15.43
2019-04-21T07:53:55.672Z,15.51
2019-04-21T07:55:03.282Z,15.60
2019-04-21T07:56:35.039Z,15.69
2019-04-21T07:57:47.894Z,15.63
2019-04-21T07:58:55.813Z,15.67
2019-04-21T07:59:57.837Z,15.76
2019-04-21T08:00:52.643Z,15.78
2019-04-21T08:01:53.192Z,15.80
2019-04-21T08:02:49.745Z,15.87
2019-04-21T08:03:47.873Z,15.84
2019-04-21T08:05:09.986Z,15.84
2019-04-21T08:05:45.763Z,15.81
2019-04-21T08:06:47.688Z,15.88
2019-04-21T08:07:52.043Z,16.02
2019-04-21T08:08:50.985Z,16.09
2019-04-21T08:09:47.307Z,16.16
2019-04-21T08:10:47.073Z,16.29
2019-04-21T08:11:41.655Z,16.50
2019-04-21T08:12:42.032Z,16.73
2019-04-21T08:13:44.929Z,16.95
2019-04-21T08:14:50.737Z,17.14
2019-04-21T08:15:44.160Z,17.22
2019-04-21T08:16:56.034Z,17.47
2019-04-21T08:17:47.132Z,17.63
2019-04-21T08:18:45.520Z,17.73
2019-04-21T08:19:43.055Z,17.79
2019-04-21T08:20:46.220Z,17.91
2019-04-21T08:21:54.609Z,18.00
2019-04-21T08:23:43.604Z,18.16
2019-04-21T08:24:51.788Z,18.24
2019-04-21T08:25:53.264Z,18.31
2019-04-21T08:26:53.719Z,18.46
2019-04-21T08:27:56.995Z,18.58
2019-04-21T08:28:47.473Z,18.64
2019-04-21T08:29:45.964Z,18.71
2019-04-21T08:30:43.224Z,18.88
2019-04-21T08:34:55.170Z,19.37
2019-04-21T08:36:46.208Z,19.39
2019-04-21T08:37:43.265Z,19.49
2019-04-21T08:38:49.614Z,19.77
2019-04-21T08:40:00.637Z,19.96
2019-04-21T08:40:47.004Z,20.11
2019-04-21T08:41:46.438Z,20.29
2019-04-21T08:42:44.771Z,20.48
2019-04-21T08:43:48.023Z,20.64
2019-04-21T08:44:47.929Z,20.77
2019-04-21T08:45:48.207Z,20.93
2019-04-21T08:46:49.136Z,20.89
2019-04-21T08:47:47.707Z,21.15
2019-04-21T08:48:50.827Z,21.54
2019-04-21T08:50:44.274Z,22.19
2019-04-21T08:51:51.697Z,22.25
2019-04-21T08:52:49.052Z,22.16
2019-04-21T08:53:57.462Z,22.46
2019-04-21T08:54:48.139Z,22.74
2019-04-21T08:55:48.906Z,22.77
2019-04-21T08:56:49.088Z,23.21
2019-04-21T08:57:53.912Z,23.08
2019-04-21T08:58:52.271Z,23.07
2019-04-21T08:59:45.951Z,22.99
2019-04-21T09:00:47.356Z,22.83
2019-04-21T09:01:48.897Z,22.68
2019-04-21T09:02:47.403Z,22.36
2019-04-21T09:03:43.011Z,22.16
2019-04-21T09:04:48.010Z,22.31
2019-04-21T09:05:45.085Z,22.40
2019-04-21T09:07:04.627Z,22.63
2019-04-21T09:07:49.549Z,22.68
2019-04-21T09:08:45.760Z,22.18
2019-04-21T09:09:47.418Z,22.28
2019-04-21T09:10:47.225Z,22.49
2019-04-21T09:11:50.910Z,22.63
2019-04-21T09:12:43.286Z,22.71
2019-04-21T09:13:41.132Z,22.68
2019-04-21T09:14:46.057Z,22.28
2019-04-21T09:15:41.621Z,22.28
2019-04-21T09:16:42.679Z,22.55
2019-04-21T09:17:37.779Z,22.74
2019-04-21T09:18:41.548Z,22.93
2019-04-21T09:19:51.006Z,23.20
2019-04-21T09:20:52.158Z,23.55
2019-04-21T09:21:46.961Z,23.85
2019-04-21T09:22:42.961Z,23.99
2019-04-21T09:23:45.302Z,24.25
2019-04-21T09:24:46.938Z,24.63
2019-04-21T09:25:47.280Z,25.11
2019-04-21T09:26:40.660Z,25.66
2019-04-21T09:27:42.101Z,26.29
2019-04-21T09:28:39.416Z,26.85
2019-04-21T09:29:35.428Z,27.33
2019-04-21T09:30:26.381Z,27.72
2019-04-21T09:31:31.853Z,27.98
2019-04-21T09:32:30.159Z,28.33
2019-04-21T09:33:34.156Z,28.56
2019-04-21T09:34:35.880Z,28.03
2019-04-21T09:35:27.013Z,28.33
2019-04-21T09:36:35.280Z,28.38
2019-04-21T09:37:37.950Z,28.52
2019-04-21T09:38:33.848Z,28.62
2019-04-21T09:39:29.509Z,28.78
2019-04-21T09:40:33.974Z,29.03
2019-04-21T09:41:27.712Z,29.22
2019-04-21T09:42:34.572Z,29.49
2019-04-21T09:43:35.751Z,29.73
2019-04-21T09:44:31.507Z,29.87
2019-04-21T09:45:26.433Z,29.99
2019-04-21T09:46:25.867Z,29.79
2019-04-21T09:47:35.037Z,29.71
2019-04-21T09:48:26.662Z,29.50
2019-04-21T09:49:29.476Z,29.22
2019-04-21T09:50:26.538Z,29.02
2019-04-21T09:51:25.981Z,27.88
2019-04-21T09:52:36.129Z,27.78
2019-04-21T09:53:32.966Z,27.60
2019-04-21T09:54:31.150Z,27.52
2019-04-21T09:55:31.986Z,27.55
2019-04-21T09:56:37.408Z,27.73
2019-04-21T09:57:36.685Z,28.01
2019-04-21T09:58:33.104Z,28.30
2019-04-21T09:59:33.069Z,28.46
2019-04-21T10:00:29.329Z,28.43
2019-04-21T10:01:37.149Z,28.28
2019-04-21T10:02:35.225Z,27.88
2019-04-21T10:03:26.358Z,28.12
2019-04-21T10:04:26.639Z,28.25
2019-04-21T10:05:25.836Z,28.43
2019-04-21T10:06:26.086Z,28.53
2019-04-21T10:07:31.848Z,27.91
2019-04-21T10:08:27.181Z,27.47
2019-04-21T10:09:26.403Z,27.55
2019-04-21T10:10:25.821Z,27.79
2019-04-21T10:11:26.886Z,28.04
2019-04-21T10:12:25.824Z,28.15
2019-04-21T10:13:25.817Z,28.10
2019-04-21T10:14:26.425Z,28.10
2019-04-21T10:15:27.838Z,28.13
2019-04-21T10:16:26.081Z,28.15
2019-04-21T10:17:25.815Z,28.30
2019-04-21T10:18:25.812Z,28.40
2019-04-21T10:19:25.806Z,28.46
2019-04-21T10:20:26.457Z,28.47
2019-04-21T10:21:27.586Z,28.59
2019-04-21T10:22:26.683Z,28.78
2019-04-21T10:23:25.813Z,28.93
2019-04-21T10:24:26.363Z,29.03
2019-04-21T10:25:25.832Z,29.03
2019-04-21T10:26:26.425Z,29.03
2019-04-21T10:27:27.254Z,29.30
2019-04-21T10:28:26.882Z,29.65
2019-04-21T10:29:28.839Z,30.05
2019-04-21T10:30:26.675Z,30.01
2019-04-21T10:31:26.900Z,29.94
2019-04-21T10:32:25.800Z,29.35
2019-04-21T10:33:26.276Z,29.58
2019-04-21T10:34:25.804Z,29.98
2019-04-21T10:35:26.316Z,30.29
2019-04-21T10:36:26.852Z,30.36
2019-04-21T10:37:40.058Z,30.24
2019-04-21T10:38:34.577Z,30.10
2019-04-21T10:39:25.825Z,29.99
2019-04-21T10:40:25.803Z,29.87
2019-04-21T10:41:25.795Z,29.59
2019-04-21T10:42:26.887Z,29.20
2019-04-21T10:43:27.361Z,28.13
2019-04-21T10:44:27.227Z,28.13
2019-04-21T10:45:25.803Z,28.10
2019-04-21T10:46:26.680Z,28.18
2019-04-21T10:47:26.935Z,28.20
2019-04-21T10:48:25.792Z,28.19
2019-04-21T10:49:26.636Z,28.12
2019-04-21T10:50:26.787Z,28.01
2019-04-21T10:51:25.782Z,28.04
2019-04-21T10:52:28.952Z,28.18
2019-04-21T10:53:26.761Z,28.41
2019-04-21T10:54:27.227Z,28.46
2019-04-21T10:55:40.268Z,28.09
2019-04-21T10:56:31.335Z,28.22
2019-04-21T10:57:26.407Z,28.18
2019-04-21T10:58:26.572Z,28.12
2019-04-21T10:59:26.859Z,28.00
2019-04-21T11:00:25.981Z,27.81
2019-04-21T11:01:27.193Z,27.58
2019-04-21T11:02:26.400Z,27.44
2019-04-21T11:03:26.878Z,27.04
2019-04-21T11:04:32.388Z,27.13
2019-04-21T11:05:26.983Z,26.93
2019-04-21T11:06:26.502Z,26.88
2019-04-21T11:07:31.158Z,26.55
2019-04-21T11:08:33.737Z,26.49
2019-04-21T11:09:26.353Z,26.44
2019-04-21T11:10:25.837Z,26.85
2019-04-21T11:11:25.974Z,27.41
2019-04-21T11:12:25.924Z,27.57
2019-04-21T11:13:26.408Z,27.50
2019-04-21T11:14:27.118Z,27.37
2019-04-21T11:15:25.753Z,27.35
2019-04-21T11:16:26.893Z,27.45
2019-04-21T11:17:25.944Z,27.82
2019-04-21T11:18:26.020Z,28.30
2019-04-21T11:19:25.725Z,28.77
2019-04-21T11:20:26.838Z,29.25
2019-04-21T11:21:26.985Z,29.50
2019-04-21T11:22:26.150Z,29.20
2019-04-21T11:23:26.899Z,29.40
2019-04-21T11:24:27.020Z,29.59
2019-04-21T11:25:26.219Z,29.65
2019-04-21T11:26:25.708Z,29.62
2019-04-21T11:27:26.836Z,29.80
2019-04-21T11:28:27.098Z,29.84
2019-04-21T11:29:26.347Z,29.73
2019-04-21T11:30:25.725Z,29.50
2019-04-21T11:31:27.076Z,29.16
2019-04-21T11:32:25.722Z,29.02
2019-04-21T11:33:27.026Z,29.02
2019-04-21T11:34:25.698Z,28.93
2019-04-21T11:35:25.699Z,28.90
2019-04-21T11:36:26.995Z,28.87
2019-04-21T11:37:26.111Z,28.77
2019-04-21T11:38:30.011Z,28.30
2019-04-21T11:39:39.155Z,27.75
2019-04-21T11:40:25.707Z,27.97
2019-04-21T11:41:25.741Z,28.00
2019-04-21T11:42:25.809Z,28.35
2019-04-21T11:43:25.695Z,28.67
2019-04-21T11:44:26.920Z,28.83
2019-04-21T11:45:26.316Z,28.94
2019-04-21T11:46:26.810Z,29.00
2019-04-21T11:47:25.695Z,28.52
2019-04-21T11:48:26.150Z,28.38
2019-04-21T11:49:28.559Z,28.23
2019-04-21T11:50:25.663Z,27.43
2019-04-21T11:51:26.902Z,27.22
2019-04-21T11:52:26.852Z,27.20
2019-04-21T11:53:25.675Z,26.98
2019-04-21T11:54:26.780Z,26.97
2019-04-21T11:55:29.491Z,27.00
2019-04-21T11:56:27.114Z,27.00
2019-04-21T11:57:28.736Z,26.97
2019-04-21T11:58:26.188Z,26.81
2019-04-21T11:59:25.908Z,26.67
2019-04-21T12:00:25.634Z,26.55
2019-04-21T12:01:25.774Z,26.42
2019-04-21T12:02:25.782Z,26.26
2019-04-21T12:03:25.645Z,26.16
2019-04-21T12:04:25.621Z,26.13
2019-04-21T12:05:25.616Z,26.22
2019-04-21T12:06:32.203Z,26.33
2019-04-21T12:07:25.606Z,26.44
2019-04-21T12:08:33.074Z,26.63
2019-04-21T12:09:25.614Z,26.98
2019-04-21T12:10:25.595Z,27.07
2019-04-21T12:11:25.598Z,27.45
2019-04-21T12:12:25.595Z,28.12
2019-04-21T12:13:25.608Z,28.78
2019-04-21T12:14:25.959Z,29.28
2019-04-21T12:15:26.973Z,29.65
2019-04-21T12:16:25.623Z,30.29
2019-04-21T12:17:25.929Z,30.49
2019-04-21T12:18:28.140Z,30.77
2019-04-21T12:19:26.987Z,31.22
2019-04-21T12:20:26.431Z,31.86
2019-04-21T12:21:28.338Z,32.24
2019-04-21T12:22:30.269Z,32.73
2019-04-21T12:23:26.740Z,33.15
2019-04-21T12:24:27.034Z,33.48
2019-04-21T12:25:25.653Z,33.70
2019-04-21T12:26:26.398Z,33.84
2019-04-21T12:27:25.757Z,33.70
2019-04-21T12:28:25.894Z,33.00
2019-04-21T12:29:26.882Z,32.57
2019-04-21T12:30:25.607Z,31.86
2019-04-21T12:31:25.633Z,30.99
2019-04-21T12:32:26.322Z,30.69
2019-04-21T12:33:25.621Z,29.90
2019-04-21T12:34:25.948Z,29.15
2019-04-21T12:35:26.136Z,29.09
2019-04-21T12:36:25.639Z,29.05
2019-04-21T12:37:26.869Z,29.07
2019-04-21T12:38:36.406Z,29.03
2019-04-21T12:39:26.996Z,29.03
2019-04-21T12:40:26.413Z,29.00
2019-04-21T12:41:26.692Z,29.03
2019-04-21T12:42:26.882Z,29.09
2019-04-21T12:43:26.460Z,29.20
2019-04-21T12:44:25.615Z,29.15
2019-04-21T12:45:26.111Z,28.33
2019-04-21T12:46:25.863Z,28.30
2019-04-21T12:47:25.931Z,28.46
2019-04-21T12:48:26.234Z,28.41
2019-04-21T12:49:25.738Z,28.56
2019-04-21T12:50:25.900Z,28.77
2019-04-21T12:51:25.963Z,28.80
2019-04-21T12:52:25.624Z,28.41
2019-04-21T12:53:25.657Z,28.35
2019-04-21T12:54:25.953Z,28.43
2019-04-21T12:55:30.508Z,28.55
2019-04-21T12:56:25.774Z,28.64
2019-04-21T12:57:25.629Z,28.56
2019-04-21T12:58:25.647Z,28.50
2019-04-21T12:59:28.127Z,28.37
2019-04-21T13:00:26.928Z,27.93
2019-04-21T13:01:25.623Z,27.82
2019-04-21T13:02:25.630Z,27.47
2019-04-21T13:03:27.426Z,27.44
2019-04-21T13:04:25.999Z,27.45
2019-04-21T13:05:25.621Z,27.45
2019-04-21T13:06:25.629Z,27.43
2019-04-21T13:07:25.820Z,27.23
2019-04-21T13:08:25.612Z,27.03
2019-04-21T13:09:27.473Z,26.82
2019-04-21T13:10:26.403Z,26.66
2019-04-21T13:11:25.637Z,26.48
2019-04-21T13:12:26.810Z,26.41
2019-04-21T13:13:26.167Z,26.36
2019-04-21T13:14:26.170Z,26.41
2019-04-21T13:15:25.622Z,26.52
2019-04-21T13:16:25.604Z,26.67
2019-04-21T13:17:25.657Z,26.56
2019-04-21T13:18:26.950Z,26.61
2019-04-21T13:19:25.593Z,26.63
2019-04-21T13:20:25.587Z,26.56
2019-04-21T13:21:25.593Z,26.70
2019-04-21T13:22:25.931Z,26.92
2019-04-21T13:23:27.018Z,27.13
2019-04-21T13:24:26.150Z,27.29
2019-04-21T13:25:25.660Z,27.48
2019-04-21T13:26:35.872Z,27.61
2019-04-21T13:27:26.890Z,27.67
2019-04-21T13:28:25.618Z,27.73
2019-04-21T13:29:26.009Z,27.76
2019-04-21T13:30:26.379Z,27.72
2019-04-21T13:31:26.604Z,27.29
2019-04-21T13:32:26.877Z,26.86
2019-04-21T13:33:27.049Z,26.81
2019-04-21T13:34:26.281Z,26.78
2019-04-21T13:35:26.729Z,26.83
2019-04-21T13:36:25.700Z,26.92
2019-04-21T13:37:25.735Z,27.05
2019-04-21T13:38:32.987Z,27.35
2019-04-21T13:39:53.667Z,27.71
2019-04-21T13:40:45.168Z,27.91
2019-04-21T13:41:40.794Z,28.09
2019-04-21T13:42:34.288Z,28.25
2019-04-21T13:43:25.549Z,28.34
2019-04-21T13:44:26.765Z,28.45
2019-04-21T13:45:25.963Z,28.28
2019-04-21T13:46:27.092Z,28.15
2019-04-21T13:47:25.540Z,28.37
2019-04-21T13:48:26.447Z,28.55
2019-04-21T13:49:25.536Z,28.75
2019-04-21T13:50:25.672Z,28.90
2019-04-21T13:51:26.797Z,28.87
2019-04-21T13:52:26.587Z,28.92
2019-04-21T13:53:26.775Z,28.90
2019-04-21T13:54:25.662Z,28.84
2019-04-21T13:55:25.751Z,28.71
2019-04-21T13:56:26.748Z,28.53
2019-04-21T13:57:26.301Z,28.34
2019-04-21T13:58:26.352Z,28.52
2019-04-21T13:59:26.400Z,28.77
2019-04-21T14:00:25.569Z,28.75
2019-04-21T14:01:25.651Z,28.71
2019-04-21T14:02:26.833Z,28.87
2019-04-21T14:03:26.724Z,29.09
2019-04-21T14:04:25.554Z,29.30